createdAt,value
2016-04-11T00:00:22.240Z,6.17
2016-04-11T00:01:22.226Z,6.13
2016-04-11T00:02:22.245Z,6.16
2016-04-11T00:03:22.232Z,6.1
2016-04-11T00:04:22.250Z,6.02
2016-04-11T00:05:22.237Z,5.94
2016-04-11T00:06:22.239Z,5.92
2016-04-11T00:07:22.243Z,6.02
2016-04-11T00:08:22.245Z,5.98
2016-04-11T00:09:22.248Z,5.94
2016-04-11T00:10:22.236Z,5.98
2016-04-11T00:11:22.239Z,5.83
2016-04-11T00:12:22.350Z,5.84
2016-04-11T00:13:22.243Z,5.84
2016-04-11T00:14:22.246Z,5.76
2016-04-11T00:15:22.234Z,5.73
2016-04-11T00:16:22.237Z,5.67
2016-04-11T00:17:22.255Z,5.64
2016-04-11T00:18:22.242Z,5.67
2016-04-11T00:19:22.229Z,5.65
2016-04-11T00:20:22.264Z,5.64
2016-04-11T00:21:22.234Z,5.69
2016-04-11T00:22:22.253Z,5.51
2016-04-11T00:23:22.240Z,5.46
2016-04-11T00:24:22.258Z,5.52
2016-04-11T00:25:22.245Z,5.41
2016-04-11T00:26:22.232Z,5.4
2016-04-11T00:27:22.250Z,5.38
2016-04-11T00:28:22.238Z,5.41
2016-04-11T00:29:22.241Z,5.37
2016-04-11T00:30:22.243Z,5.33
2016-04-11T00:31:22.246Z,5.26
2016-04-11T00:32:22.264Z,5.26
2016-04-11T00:33:22.245Z,5.33
2016-04-11T00:34:21.927Z,5.2
2016-04-11T00:35:22.748Z,5.18
2016-04-11T00:36:22.077Z,5.2
2016-04-11T00:37:22.236Z,5.16
2016-04-11T00:38:22.239Z,5.16
2016-04-11T00:39:22.242Z,5.13
2016-04-11T00:40:22.229Z,5.05
2016-04-11T00:41:22.232Z,5.07
2016-04-11T00:42:22.359Z,5.04
2016-04-11T00:43:22.237Z,5.01
2016-04-11T00:44:22.068Z,5
2016-04-11T00:45:22.243Z,5
2016-04-11T00:46:22.229Z,5.04
2016-04-11T00:47:22.232Z,5.1
2016-04-11T00:48:22.235Z,5.12
2016-04-11T00:49:22.238Z,5.01
2016-04-11T00:50:22.240Z,5.04
2016-04-11T00:51:22.243Z,4.98
2016-04-11T00:52:22.230Z,4.95
2016-04-11T00:53:22.233Z,4.92
2016-04-11T00:54:22.235Z,4.92
2016-04-11T00:55:22.238Z,4.74
2016-04-11T00:56:22.240Z,4.75
2016-04-11T00:57:22.243Z,4.79
2016-04-11T00:58:22.231Z,4.7
2016-04-11T00:59:22.248Z,4.75
2016-04-11T01:00:22.251Z,4.7
2016-04-11T01:01:22.239Z,4.64
2016-04-11T01:02:22.225Z,4.68
2016-04-11T01:03:22.244Z,4.75
2016-04-11T01:04:22.480Z,4.7
2016-04-11T01:05:22.233Z,4.74
2016-04-11T01:06:22.236Z,4.74
2016-04-11T01:07:22.239Z,4.7
2016-04-11T01:08:22.242Z,4.7
2016-04-11T01:09:22.230Z,4.6
2016-04-11T01:10:22.236Z,4.56
2016-04-11T01:11:22.239Z,4.6
2016-04-11T01:12:22.241Z,4.61
2016-04-11T01:13:22.244Z,4.53
2016-04-11T01:14:22.232Z,4.57
2016-04-11T01:15:22.234Z,4.58
2016-04-11T01:16:22.253Z,4.53
2016-04-11T01:17:22.224Z,4.57
2016-04-11T01:18:22.227Z,4.48
2016-04-11T01:19:22.229Z,4.43
2016-04-11T01:20:22.232Z,4.5
2016-04-11T01:21:22.235Z,4.38
2016-04-11T01:22:22.237Z,4.38
2016-04-11T01:23:22.240Z,4.38
2016-04-11T01:24:22.242Z,4.36
2016-04-11T01:25:22.230Z,4.4
2016-04-11T01:26:22.233Z,4.34
2016-04-11T01:27:22.236Z,4.43
2016-04-11T01:28:22.238Z,4.39
2016-04-11T01:29:22.225Z,4.32
2016-04-11T01:30:22.244Z,4.39
2016-04-11T01:31:22.230Z,4.3
2016-04-11T01:32:22.233Z,4.32
2016-04-11T01:33:22.236Z,4.24
2016-04-11T01:34:22.239Z,4.22
2016-04-11T01:35:22.241Z,4.24
2016-04-11T01:36:22.244Z,4.3
2016-04-11T01:37:22.230Z,4.28
2016-04-11T01:38:22.218Z,4.18
2016-04-11T01:39:22.236Z,4.22
2016-04-11T01:40:22.223Z,4.18
2016-04-11T01:41:22.227Z,4.2
2016-04-11T01:42:22.229Z,4.13
2016-04-11T01:43:22.232Z,4.09
2016-04-11T01:44:22.234Z,4.09
2016-04-11T01:45:22.237Z,4.04
2016-04-11T01:46:22.224Z,3.94
2016-04-11T01:47:22.227Z,4.06
2016-04-11T01:48:22.229Z,4
2016-04-11T01:49:22.076Z,3.96
2016-04-11T01:50:22.234Z,3.99
2016-04-11T01:51:22.237Z,4
2016-04-11T01:52:22.224Z,3.96
2016-04-11T01:53:22.227Z,3.92
2016-04-11T01:54:22.230Z,4.02
2016-04-11T01:55:22.232Z,3.95
2016-04-11T01:56:22.235Z,3.94
2016-04-11T01:57:22.253Z,4.07
2016-04-11T01:58:22.225Z,3.92
2016-04-11T01:59:22.228Z,4
2016-04-11T02:00:22.230Z,3.92
2016-04-11T02:01:22.233Z,3.91
2016-04-11T02:02:22.219Z,3.95
2016-04-11T02:03:22.222Z,3.91
2016-04-11T02:04:22.225Z,3.85
2016-04-11T02:05:22.228Z,3.7
2016-04-11T02:06:22.230Z,3.77
2016-04-11T02:07:22.234Z,3.73
2016-04-11T02:08:22.236Z,3.67
2016-04-11T02:09:22.255Z,3.7
2016-04-11T02:10:22.226Z,3.67
2016-04-11T02:11:22.229Z,3.67
2016-04-11T02:12:22.294Z,3.63
2016-04-11T02:13:22.218Z,3.61
2016-04-11T02:14:22.221Z,3.63
2016-04-11T02:15:22.223Z,3.56
2016-04-11T02:16:22.227Z,3.5
2016-04-11T02:17:22.229Z,3.55
2016-04-11T02:18:22.216Z,3.49
2016-04-11T02:19:22.218Z,3.49
2016-04-11T02:20:22.222Z,3.46
2016-04-11T02:21:22.224Z,3.43
2016-04-11T02:22:22.226Z,3.49
2016-04-11T02:23:22.229Z,3.43
2016-04-11T02:24:22.217Z,3.46
2016-04-11T02:25:22.235Z,3.4
2016-04-11T02:26:22.222Z,3.34
2016-04-11T02:27:22.225Z,3.33
2016-04-11T02:28:22.242Z,3.36
2016-04-11T02:29:22.214Z,3.29
2016-04-11T02:30:22.233Z,3.29
2016-04-11T02:31:22.236Z,3.33
2016-04-11T02:32:22.206Z,3.27
2016-04-11T02:33:22.210Z,3.3
2016-04-11T02:34:22.212Z,3.33
2016-04-11T02:35:22.215Z,3.37
2016-04-11T02:36:22.233Z,3.24
2016-04-11T02:37:22.220Z,3.36
2016-04-11T02:38:22.223Z,3.29
2016-04-11T02:39:22.226Z,3.27
2016-04-11T02:40:22.228Z,3.27
2016-04-11T02:41:22.231Z,3.29
2016-04-11T02:42:22.187Z,3.4
2016-04-11T02:43:22.221Z,3.45
2016-04-11T02:44:22.223Z,3.29
2016-04-11T02:45:22.210Z,3.31
2016-04-11T02:46:22.213Z,3.36
2016-04-11T02:47:22.216Z,3.29
2016-04-11T02:48:22.219Z,3.21
2016-04-11T02:49:22.221Z,3.31
2016-04-11T02:50:22.223Z,3.43
2016-04-11T02:51:22.211Z,3.26
2016-04-11T02:52:22.229Z,3.27
2016-04-11T02:53:22.217Z,3.3
2016-04-11T02:54:22.203Z,3.22
2016-04-11T02:55:22.206Z,3.27
2016-04-11T02:56:22.208Z,3.27
2016-04-11T02:57:22.243Z,3.3
2016-04-11T02:58:22.214Z,3.19
2016-04-11T02:59:22.201Z,3.18
2016-04-11T03:00:22.048Z,3.16
2016-04-11T03:01:22.067Z,3.08
2016-04-11T03:02:22.209Z,3.12
2016-04-11T03:03:22.211Z,3.12
2016-04-11T03:04:22.214Z,3.05
2016-04-11T03:05:22.217Z,2.97
2016-04-11T03:06:22.205Z,2.97
2016-04-11T03:07:22.207Z,3.06
2016-04-11T03:08:22.210Z,2.94
2016-04-11T03:09:22.212Z,2.93
2016-04-11T03:10:22.215Z,2.9
2016-04-11T03:11:22.218Z,2.83
2016-04-11T03:12:22.236Z,2.88
2016-04-11T03:13:22.207Z,2.91
2016-04-11T03:14:22.211Z,2.77
2016-04-11T03:15:22.213Z,2.85
2016-04-11T03:16:22.200Z,2.77
2016-04-11T03:17:22.202Z,2.9
2016-04-11T03:18:22.205Z,2.88
2016-04-11T03:19:22.208Z,2.8
2016-04-11T03:20:22.210Z,2.83
2016-04-11T03:21:22.213Z,2.9
2016-04-11T03:22:22.201Z,2.79
2016-04-11T03:23:22.218Z,2.88
2016-04-11T03:24:22.206Z,2.9
2016-04-11T03:25:22.193Z,2.75
2016-04-11T03:26:22.195Z,2.83
2016-04-11T03:27:22.229Z,2.69
2016-04-11T03:28:22.201Z,2.75
2016-04-11T03:29:22.204Z,2.68
2016-04-11T03:30:22.191Z,2.79
2016-04-11T03:31:22.209Z,2.77
2016-04-11T03:32:22.196Z,2.69
2016-04-11T03:33:22.199Z,2.72
2016-04-11T03:34:22.202Z,2.73
2016-04-11T03:35:22.205Z,2.83
2016-04-11T03:36:22.222Z,2.65
2016-04-11T03:37:22.194Z,2.72
2016-04-11T03:38:22.196Z,2.69
2016-04-11T03:39:22.200Z,2.69
2016-04-11T03:40:22.186Z,2.69
2016-04-11T03:41:22.189Z,2.59
2016-04-11T03:42:21.974Z,2.59
2016-04-11T03:43:22.039Z,2.58
2016-04-11T03:44:22.197Z,2.58
2016-04-11T03:45:22.185Z,2.58
2016-04-11T03:46:22.202Z,2.62
2016-04-11T03:47:22.190Z,2.52
2016-04-11T03:48:22.193Z,2.57
2016-04-11T03:49:22.196Z,2.54
2016-04-11T03:50:22.182Z,2.51
2016-04-11T03:51:22.185Z,2.47
2016-04-11T03:52:22.187Z,2.5
2016-04-11T03:53:22.190Z,2.47
2016-04-11T03:54:22.209Z,2.52
2016-04-11T03:55:22.195Z,2.44
2016-04-11T03:56:22.198Z,2.52
2016-04-11T03:57:22.217Z,2.51
2016-04-11T03:58:22.188Z,2.5
2016-04-11T03:59:22.190Z,2.46
2016-04-11T04:00:22.178Z,2.46
2016-04-11T04:01:22.180Z,2.41
2016-04-11T04:02:22.184Z,2.41
2016-04-11T04:03:22.186Z,2.39
2016-04-11T04:04:22.189Z,2.34
2016-04-11T04:05:22.191Z,2.37
2016-04-11T04:06:22.194Z,2.37
2016-04-11T04:07:22.180Z,2.3
2016-04-11T04:08:22.184Z,2.37
2016-04-11T04:09:22.186Z,2.3
2016-04-11T04:10:22.189Z,2.28
2016-04-11T04:11:22.191Z,2.32
2016-04-11T04:12:22.242Z,2.32
2016-04-11T04:13:22.182Z,2.36
2016-04-11T04:14:22.200Z,2.41
2016-04-11T04:15:22.171Z,2.43
2016-04-11T04:16:22.174Z,2.36
2016-04-11T04:17:22.193Z,2.36
2016-04-11T04:18:22.180Z,2.39
2016-04-11T04:19:22.182Z,2.43
2016-04-11T04:20:22.185Z,2.46
2016-04-11T04:21:22.171Z,2.47
2016-04-11T04:22:22.174Z,2.41
2016-04-11T04:23:22.177Z,2.37
2016-04-11T04:24:22.213Z,2.37
2016-04-11T04:25:22.259Z,2.32
2016-04-11T04:26:22.306Z,2.37
2016-04-11T04:27:22.384Z,2.36
2016-04-11T04:28:22.384Z,2.3
2016-04-11T04:29:22.409Z,2.3
2016-04-11T04:30:22.427Z,2.39
2016-04-11T04:31:22.429Z,2.41
2016-04-11T04:32:22.480Z,2.43
2016-04-11T04:33:22.467Z,2.37
2016-04-11T04:34:22.493Z,2.25
2016-04-11T04:35:22.501Z,2.25
2016-04-11T04:36:22.494Z,2.3
2016-04-11T04:37:22.519Z,2.32
2016-04-11T04:38:22.495Z,2.26
2016-04-11T04:39:22.501Z,2.22
2016-04-11T04:40:22.490Z,2.23
2016-04-11T04:41:22.510Z,2.19
2016-04-11T04:42:22.531Z,2.22
2016-04-11T04:43:22.519Z,2.18
2016-04-11T04:44:22.508Z,2.21
2016-04-11T04:45:22.511Z,2.26
2016-04-11T04:46:22.514Z,2.33
2016-04-11T04:47:22.502Z,2.22
2016-04-11T04:48:22.506Z,2.3
2016-04-11T04:49:22.509Z,2.36
2016-04-11T04:50:22.497Z,2.3
2016-04-11T04:51:22.515Z,2.37
2016-04-11T04:52:22.503Z,2.4
2016-04-11T04:53:22.521Z,2.46
2016-04-11T04:54:22.509Z,2.51
2016-04-11T04:55:22.511Z,2.51
2016-04-11T04:56:22.498Z,2.7
2016-04-11T04:57:22.517Z,2.93
2016-04-11T04:58:22.504Z,2.98
2016-04-11T04:59:22.506Z,3.21
2016-04-11T05:00:22.509Z,3.46
2016-04-11T05:01:22.511Z,3.53
2016-04-11T05:02:22.499Z,3.71
2016-04-11T05:03:22.501Z,4.02
2016-04-11T05:04:22.504Z,4.3
2016-04-11T05:05:22.507Z,4.58
2016-04-11T05:06:22.494Z,4.86
2016-04-11T05:07:22.606Z,5.15
2016-04-11T05:08:22.499Z,5.34
2016-04-11T05:09:22.502Z,5.69
2016-04-11T05:10:22.505Z,5.91
2016-04-11T05:11:22.492Z,6.26
2016-04-11T05:12:22.510Z,6.5
2016-04-11T05:13:22.497Z,6.7
2016-04-11T05:14:22.499Z,7.07
2016-04-11T05:15:22.502Z,7.41
2016-04-11T05:16:22.505Z,7.7
2016-04-11T05:17:22.508Z,8.03
2016-04-11T05:18:22.510Z,8.35
2016-04-11T05:19:22.513Z,8.59
2016-04-11T05:20:22.500Z,8.75
2016-04-11T05:21:22.502Z,9.13
2016-04-11T05:22:22.505Z,9.4
2016-04-11T05:23:22.508Z,9.66
2016-04-11T05:24:22.510Z,9.97
2016-04-11T05:25:22.498Z,10.31
2016-04-11T05:26:22.516Z,10.53
2016-04-11T05:27:22.504Z,10.95
2016-04-11T05:28:22.507Z,11.31
2016-04-11T05:29:22.493Z,11.52
2016-04-11T05:30:22.512Z,11.6
2016-04-11T05:31:22.498Z,11.88
2016-04-11T05:32:22.501Z,12.1
2016-04-11T05:33:22.504Z,12.29
2016-04-11T05:34:22.506Z,12.44
2016-04-11T05:35:22.525Z,12.7
2016-04-11T05:36:22.512Z,12.95
2016-04-11T05:37:22.514Z,13.3
2016-04-11T05:38:22.517Z,13.31
2016-04-11T05:39:22.505Z,13.64
2016-04-11T05:40:22.507Z,13.89
2016-04-11T05:41:22.541Z,14.15
2016-04-11T05:42:22.514Z,14.38
2016-04-11T05:43:22.547Z,14.81
2016-04-11T05:44:22.519Z,15.17
2016-04-11T05:45:22.536Z,15.5
2016-04-11T05:46:22.524Z,15.8
2016-04-11T05:47:22.527Z,16
2016-04-11T05:48:22.529Z,16.31
2016-04-11T05:49:22.532Z,16.65
2016-04-11T05:50:22.518Z,17.01
2016-04-11T05:51:22.521Z,17.34
2016-04-11T05:52:22.524Z,17.68
2016-04-11T05:53:22.527Z,17.94
2016-04-11T05:54:22.545Z,18.13
2016-04-11T05:55:22.532Z,18.34
2016-04-11T05:56:22.551Z,18.61
2016-04-11T05:57:22.538Z,18.83
2016-04-11T05:58:22.556Z,19.01
2016-04-11T05:59:22.902Z,19.3
2016-04-11T06:00:22.546Z,19.66
2016-04-11T06:01:22.548Z,19.82
2016-04-11T06:02:22.551Z,20.12
2016-04-11T06:03:22.553Z,20.33
2016-04-11T06:04:22.572Z,20.55
2016-04-11T06:05:22.575Z,20.71
2016-04-11T06:06:22.562Z,21.08
2016-04-11T06:07:22.580Z,21.37
2016-04-11T06:08:22.584Z,21.62
2016-04-11T06:09:22.585Z,21.62
2016-04-11T06:10:22.572Z,21.77
2016-04-11T06:11:22.591Z,21.88
2016-04-11T06:12:22.594Z,22.07
2016-04-11T06:13:22.596Z,22.41
2016-04-11T06:14:22.599Z,22.62
2016-04-11T06:15:22.602Z,22.78
2016-04-11T06:16:22.605Z,23.06
2016-04-11T06:17:22.608Z,23.32
2016-04-11T06:18:22.610Z,23.55
2016-04-11T06:19:22.612Z,23.77
2016-04-11T06:20:22.616Z,23.88
2016-04-11T06:21:22.633Z,24.06
2016-04-11T06:22:22.620Z,24.26
2016-04-11T06:23:22.639Z,24.5
2016-04-11T06:24:22.641Z,24.63
2016-04-11T06:25:22.644Z,24.85
2016-04-11T06:26:22.647Z,25.19
2016-04-11T06:27:22.649Z,25.29
2016-04-11T06:28:22.652Z,25.3
2016-04-11T06:29:22.671Z,25.44
2016-04-11T06:30:22.673Z,25.7
2016-04-11T06:31:22.660Z,25.86
2016-04-11T06:32:22.679Z,26.07
2016-04-11T06:33:22.682Z,26.37
2016-04-11T06:34:22.684Z,26.6
2016-04-11T06:35:22.686Z,26.76
2016-04-11T06:36:22.705Z,27.04
2016-04-11T06:37:22.707Z,27.28
2016-04-11T06:38:22.709Z,27.48
2016-04-11T06:39:22.729Z,27.58
2016-04-11T06:40:22.731Z,27.75
2016-04-11T06:41:22.734Z,27.91
2016-04-11T06:42:22.737Z,27.97
2016-04-11T06:43:22.739Z,28.31
2016-04-11T06:44:22.742Z,28.71
2016-04-11T06:45:22.745Z,28.94
2016-04-11T06:46:22.747Z,29.3
2016-04-11T06:47:22.766Z,29.58
2016-04-11T06:48:22.753Z,29.9
2016-04-11T06:49:22.772Z,30.18
2016-04-11T06:50:22.774Z,30.18
2016-04-11T06:51:22.932Z,30.46
2016-04-11T06:52:22.780Z,30.69
2016-04-11T06:53:22.782Z,30.91
2016-04-11T06:54:22.799Z,31.11
2016-04-11T06:55:22.803Z,31.15
2016-04-11T06:56:22.805Z,31.17
2016-04-11T06:57:22.808Z,31.05
2016-04-11T06:58:22.827Z,31.08
2016-04-11T06:59:22.829Z,31.07
2016-04-11T07:00:22.832Z,31.35
2016-04-11T07:01:22.834Z,31.54
2016-04-11T07:02:22.853Z,31.95
2016-04-11T07:03:22.856Z,32.37
2016-04-11T07:04:22.859Z,32.6
2016-04-11T07:05:22.862Z,32.91
2016-04-11T07:06:22.879Z,33.22
2016-04-11T07:07:22.882Z,33.4
2016-04-11T07:08:22.885Z,33.65
2016-04-11T07:09:22.731Z,33.67
2016-04-11T07:10:22.906Z,33.85
2016-04-11T07:11:22.908Z,33.91
2016-04-11T07:12:22.911Z,33.89
2016-04-11T07:13:22.914Z,34.04
2016-04-11T07:14:22.931Z,34.26
2016-04-11T07:15:22.934Z,34.38
2016-04-11T07:16:22.953Z,34.5
2016-04-11T07:17:22.956Z,34.58
2016-04-11T07:18:22.959Z,34.55
2016-04-11T07:19:22.961Z,34.4
2016-04-11T07:20:22.964Z,34.28
2016-04-11T07:21:22.966Z,34.41
2016-04-11T07:22:22.985Z,34.43
2016-04-11T07:23:22.988Z,34.37
2016-04-11T07:24:23.021Z,34.55
2016-04-11T07:25:22.995Z,34.62
2016-04-11T07:26:23.013Z,34.63
2016-04-11T07:27:23.016Z,34.58
2016-04-11T07:28:23.018Z,34.46
2016-04-11T07:29:23.037Z,34.38
2016-04-11T07:30:23.039Z,34.33
2016-04-11T07:31:23.042Z,34.62
2016-04-11T07:32:23.061Z,34.93
2016-04-11T07:33:23.079Z,35.31
2016-04-11T07:34:23.065Z,35.68
2016-04-11T07:35:23.084Z,35.9
2016-04-11T07:36:23.071Z,36.17
2016-04-11T07:37:23.089Z,36.35
2016-04-11T07:38:23.108Z,36.41
2016-04-11T07:39:23.111Z,36.44
2016-04-11T07:40:23.114Z,36.5
2016-04-11T07:41:23.116Z,36.53
2016-04-11T07:42:23.134Z,36.65
2016-04-11T07:43:23.153Z,36.85
2016-04-11T07:44:23.139Z,36.82
2016-04-11T07:45:23.142Z,36.63
2016-04-11T07:46:23.161Z,36.85
2016-04-11T07:47:23.163Z,36.85
2016-04-11T07:48:23.183Z,36.89
2016-04-11T07:49:23.185Z,36.87
2016-04-11T07:50:23.188Z,36.55
2016-04-11T07:51:23.205Z,36.39
2016-04-11T07:52:23.207Z,36.47
2016-04-11T07:53:23.227Z,36.55
2016-04-11T07:54:23.213Z,36.28
2016-04-11T07:55:23.232Z,35.74
2016-04-11T07:56:23.235Z,35.37
2016-04-11T07:57:23.252Z,35.22
2016-04-11T07:58:23.255Z,35.19
2016-04-11T07:59:23.274Z,35.23
2016-04-11T08:00:23.276Z,35.31
2016-04-11T08:01:23.279Z,35.35
2016-04-11T08:02:23.298Z,34.82
2016-04-11T08:03:23.285Z,33.94
2016-04-11T08:04:23.303Z,33.17
2016-04-11T08:05:23.306Z,32.9
2016-04-11T08:06:23.308Z,32.91
2016-04-11T08:07:23.326Z,33.12
2016-04-11T08:08:23.314Z,33.33
2016-04-11T08:09:23.336Z,33.66
2016-04-11T08:10:23.340Z,34.04
2016-04-11T08:11:23.358Z,34.6
2016-04-11T08:12:23.360Z,35.35
2016-04-11T08:13:23.457Z,36.25
2016-04-11T08:14:23.381Z,36.59
2016-04-11T08:15:23.384Z,36.75
2016-04-11T08:16:23.386Z,36.76
2016-04-11T08:17:23.389Z,36.75
2016-04-11T08:18:23.397Z,36.84
2016-04-11T08:19:23.415Z,36.63
2016-04-11T08:20:23.435Z,36.47
2016-04-11T08:21:23.421Z,36.44
2016-04-11T08:22:23.439Z,36.2
2016-04-11T08:23:23.442Z,36.13
2016-04-11T08:24:23.459Z,36.29
2016-04-11T08:25:23.448Z,36.65
2016-04-11T08:26:23.465Z,37.04
2016-04-11T08:27:23.468Z,37.53
2016-04-11T08:28:23.627Z,37.67
2016-04-11T08:29:23.473Z,37.21
2016-04-11T08:30:23.492Z,37.18
2016-04-11T08:31:23.495Z,37.18
2016-04-11T08:32:23.498Z,37.03
2016-04-11T08:33:23.515Z,36.82
2016-04-11T08:34:23.518Z,36.39
2016-04-11T08:35:23.506Z,35.79
2016-04-11T08:36:23.539Z,35.61
2016-04-11T08:37:23.542Z,35.49
2016-04-11T08:38:23.545Z,35.15
2016-04-11T08:39:23.547Z,35.2
2016-04-11T08:40:23.566Z,35.47
2016-04-11T08:41:23.584Z,35.94
2016-04-11T08:42:23.571Z,36.24
2016-04-11T08:43:23.464Z,36.44
2016-04-11T08:44:23.592Z,36.82
2016-04-11T08:45:23.594Z,37.33
2016-04-11T08:46:23.597Z,37.92
2016-04-11T08:47:23.600Z,38.38
2016-04-11T08:48:23.602Z,38.32
2016-04-11T08:49:23.605Z,38.35
2016-04-11T08:50:23.624Z,38.51
2016-04-11T08:51:23.627Z,38.58
2016-04-11T08:52:23.629Z,38.19
2016-04-11T08:53:23.647Z,37.47
2016-04-11T08:54:23.651Z,36.99
2016-04-11T08:55:23.653Z,36.65
2016-04-11T08:56:23.671Z,36.72
2016-04-11T08:57:23.673Z,37.04
2016-04-11T08:58:23.707Z,37.21
2016-04-11T08:59:23.679Z,36.67
2016-04-11T09:00:23.681Z,36.57
2016-04-11T09:01:23.685Z,36.48
2016-04-11T09:02:23.703Z,36.5
2016-04-11T09:03:23.706Z,36.81
2016-04-11T09:04:24.005Z,36.96
2016-04-11T09:05:23.711Z,36.73
2016-04-11T09:06:23.729Z,36.5
2016-04-11T09:07:23.716Z,36.22
2016-04-11T09:08:23.734Z,35.98
2016-04-11T09:09:23.737Z,35.84
2016-04-11T09:10:23.740Z,35.59
2016-04-11T09:11:23.742Z,35.42
2016-04-11T09:12:23.761Z,35.15
2016-04-11T09:13:23.702Z,35.2
2016-04-11T09:14:23.750Z,35.44
2016-04-11T09:15:23.769Z,35.66
2016-04-11T09:16:23.788Z,35.88
2016-04-11T09:17:23.774Z,36.06
2016-04-11T09:18:23.777Z,36.08
2016-04-11T09:19:23.780Z,35.68
2016-04-11T09:20:23.798Z,35.61
2016-04-11T09:21:23.816Z,35.39
2016-04-11T09:22:23.788Z,35.23
2016-04-11T09:23:23.822Z,35.19
2016-04-11T09:24:23.809Z,34.94
2016-04-11T09:25:23.655Z,34.41
2016-04-11T09:26:23.815Z,34
2016-04-11T09:27:23.676Z,33.65
2016-04-11T09:28:24.070Z,32.73
2016-04-11T09:29:23.838Z,31.81
2016-04-11T09:30:23.841Z,31.26
2016-04-11T09:31:23.843Z,31.36
2016-04-11T09:32:23.846Z,31.62
2016-04-11T09:33:23.864Z,31.51
2016-04-11T09:34:23.867Z,31.44
2016-04-11T09:35:23.886Z,31.18
2016-04-11T09:36:23.873Z,30.71
2016-04-11T09:37:23.875Z,30.29
2016-04-11T09:38:23.878Z,29.87
2016-04-11T09:39:23.897Z,29.39
2016-04-11T09:40:23.899Z,28.72
2016-04-11T09:41:23.902Z,27.95
2016-04-11T09:42:23.904Z,27.34
2016-04-11T09:43:24.033Z,26.81
2016-04-11T09:44:23.910Z,26.3
2016-04-11T09:45:23.912Z,25.68
2016-04-11T09:46:23.915Z,25.3
2016-04-11T09:47:23.918Z,24.59
2016-04-11T09:48:23.921Z,23.73
2016-04-11T09:49:23.939Z,23.13
2016-04-11T09:50:23.941Z,22.67
2016-04-11T09:51:23.944Z,22.16
2016-04-11T09:52:23.947Z,21.92
2016-04-11T09:53:23.949Z,21.75
2016-04-11T09:54:23.952Z,21.56
2016-04-11T09:55:23.954Z,21.3
2016-04-11T09:56:23.958Z,21.28
2016-04-11T09:57:23.960Z,21.28
2016-04-11T09:58:23.962Z,21.19
2016-04-11T09:59:23.965Z,21.05
2016-04-11T10:00:23.968Z,20.88
2016-04-11T10:01:23.971Z,20.7
2016-04-11T10:02:23.989Z,20.44
2016-04-11T10:03:23.992Z,20.37
2016-04-11T10:04:23.994Z,20.33
2016-04-11T10:05:23.998Z,20.34
2016-04-11T10:06:24.000Z,20.18
2016-04-11T10:07:24.018Z,20.11
2016-04-11T10:08:24.005Z,20.08
2016-04-11T10:09:24.024Z,19.94
2016-04-11T10:10:24.011Z,19.75
2016-04-11T10:11:24.014Z,19.84
2016-04-11T10:12:24.031Z,19.74
2016-04-11T10:13:24.050Z,19.77
2016-04-11T10:14:24.021Z,19.66
2016-04-11T10:15:24.039Z,19.59
2016-04-11T10:16:24.058Z,19.6
2016-04-11T10:17:24.044Z,19.47
2016-04-11T10:18:24.047Z,19.49
2016-04-11T10:19:24.050Z,19.45
2016-04-11T10:20:24.053Z,19.49
2016-04-11T10:21:24.055Z,19.38
2016-04-11T10:22:24.058Z,19.27
2016-04-11T10:23:24.077Z,19.32
2016-04-11T10:24:24.063Z,19.41
2016-04-11T10:25:24.082Z,19.38
2016-04-11T10:26:24.069Z,19.48
2016-04-11T10:27:24.087Z,19.45
2016-04-11T10:28:24.138Z,19.41
2016-04-11T10:29:24.624Z,19.3
2016-04-11T10:30:24.096Z,19.15
2016-04-11T10:31:24.114Z,18.91
2016-04-11T10:32:24.101Z,18.85
2016-04-11T10:33:24.104Z,18.71
2016-04-11T10:34:24.107Z,18.73
2016-04-11T10:35:24.109Z,18.71
2016-04-11T10:36:24.112Z,18.71
2016-04-11T10:37:24.130Z,18.66
2016-04-11T10:38:24.117Z,18.67
2016-04-11T10:39:24.120Z,18.63
2016-04-11T10:40:24.139Z,18.43
2016-04-11T10:41:24.125Z,18.3
2016-04-11T10:42:24.128Z,18.15
2016-04-11T10:43:24.272Z,18.08
2016-04-11T10:44:24.133Z,18.02
2016-04-11T10:45:24.167Z,18.12
2016-04-11T10:46:24.139Z,18.24
2016-04-11T10:47:24.157Z,18.34
2016-04-11T10:48:24.160Z,18.41
2016-04-11T10:49:24.178Z,18.57
2016-04-11T10:50:24.165Z,18.74
2016-04-11T10:51:24.168Z,18.82
2016-04-11T10:52:24.171Z,18.74
2016-04-11T10:53:24.174Z,18.79
2016-04-11T10:54:24.176Z,18.89
2016-04-11T10:55:24.179Z,18.98
2016-04-11T10:56:24.181Z,18.92
2016-04-11T10:57:24.185Z,18.89
2016-04-11T10:58:24.187Z,19.04
2016-04-11T10:59:24.205Z,19
2016-04-11T11:00:24.192Z,19.07
2016-04-11T11:01:24.195Z,19.2
2016-04-11T11:02:24.197Z,19.19
2016-04-11T11:03:24.216Z,19.19
2016-04-11T11:04:24.219Z,19.22
2016-04-11T11:05:24.206Z,19.26
2016-04-11T11:06:24.208Z,19.22
2016-04-11T11:07:24.211Z,19.07
2016-04-11T11:08:24.228Z,19.09
2016-04-11T11:09:24.232Z,19
2016-04-11T11:10:24.235Z,18.89
2016-04-11T11:11:24.237Z,18.73
2016-04-11T11:12:24.224Z,18.78
2016-04-11T11:13:24.243Z,18.64
2016-04-11T11:14:24.245Z,18.7
2016-04-11T11:15:24.248Z,18.53
2016-04-11T11:16:24.235Z,18.41
2016-04-11T11:17:24.254Z,18.27
2016-04-11T11:18:24.256Z,18.15
2016-04-11T11:19:24.258Z,18.08
2016-04-11T11:20:24.261Z,18.09
2016-04-11T11:21:24.264Z,18.08
2016-04-11T11:22:24.266Z,17.91
2016-04-11T11:23:24.269Z,18.03
2016-04-11T11:24:24.272Z,18.02
2016-04-11T11:25:24.275Z,18.03
2016-04-11T11:26:24.277Z,18.12
2016-04-11T11:27:24.296Z,18.16
2016-04-11T11:28:24.283Z,18.27
2016-04-11T11:29:24.286Z,18.34
2016-04-11T11:30:24.288Z,18.45
2016-04-11T11:31:24.307Z,18.41
2016-04-11T11:32:24.309Z,18.45
2016-04-11T11:33:24.296Z,18.46
2016-04-11T11:34:24.314Z,18.53
2016-04-11T11:35:24.317Z,18.6
2016-04-11T11:36:24.320Z,18.6
2016-04-11T11:37:24.323Z,18.63
2016-04-11T11:38:24.326Z,18.63
2016-04-11T11:39:24.328Z,18.64
2016-04-11T11:40:24.331Z,18.66
2016-04-11T11:41:24.334Z,18.67
2016-04-11T11:42:24.336Z,18.64
2016-04-11T11:43:24.355Z,18.67
2016-04-11T11:44:24.342Z,18.71
2016-04-11T11:45:24.345Z,18.71
2016-04-11T11:46:24.347Z,18.66
2016-04-11T11:47:24.350Z,18.64
2016-04-11T11:48:24.353Z,18.68
2016-04-11T11:49:24.355Z,18.78
2016-04-11T11:50:24.374Z,18.78
2016-04-11T11:51:24.360Z,18.79
2016-04-11T11:52:24.364Z,18.71
2016-04-11T11:53:24.366Z,18.78
2016-04-11T11:54:24.385Z,18.82
2016-04-11T11:55:24.371Z,18.85
2016-04-11T11:56:24.374Z,18.85
2016-04-11T11:57:24.377Z,18.91
2016-04-11T11:58:24.379Z,18.81
2016-04-11T11:59:24.382Z,18.66
2016-04-11T12:00:24.384Z,18.63
2016-04-11T12:01:24.388Z,18.66
2016-04-11T12:02:24.406Z,18.63
2016-04-11T12:03:24.392Z,18.68
2016-04-11T12:04:24.412Z,18.64
2016-04-11T12:05:24.399Z,18.68
2016-04-11T12:06:24.401Z,18.66
2016-04-11T12:07:24.419Z,18.68
2016-04-11T12:08:24.423Z,18.68
2016-04-11T12:09:24.408Z,18.61
2016-04-11T12:10:24.412Z,18.63
2016-04-11T12:11:24.414Z,18.6
2016-04-11T12:12:24.417Z,18.48
2016-04-11T12:13:24.436Z,18.45
2016-04-11T12:14:24.423Z,18.41
2016-04-11T12:15:24.425Z,18.34
2016-04-11T12:16:24.443Z,18.41
2016-04-11T12:17:24.447Z,18.36
2016-04-11T12:18:24.449Z,18.43
2016-04-11T12:19:24.452Z,18.31
2016-04-11T12:20:24.454Z,18.36
2016-04-11T12:21:24.441Z,18.52
2016-04-11T12:22:24.460Z,18.48
2016-04-11T12:23:24.447Z,18.61
2016-04-11T12:24:24.465Z,18.7
2016-04-11T12:25:24.468Z,18.68
2016-04-11T12:26:24.471Z,18.71
2016-04-11T12:27:24.473Z,18.74
2016-04-11T12:28:24.476Z,18.82
2016-04-11T12:29:24.478Z,18.88
2016-04-11T12:30:24.482Z,18.91
2016-04-11T12:31:24.484Z,18.89
2016-04-11T12:32:24.487Z,19.01
2016-04-11T12:33:24.489Z,18.96
2016-04-11T12:34:24.492Z,18.94
2016-04-11T12:35:24.495Z,18.91
2016-04-11T12:36:24.497Z,18.92
2016-04-11T12:37:24.500Z,18.82
2016-04-11T12:38:24.503Z,18.81
2016-04-11T12:39:24.506Z,18.73
2016-04-11T12:40:24.509Z,18.71
2016-04-11T12:41:24.511Z,18.74
2016-04-11T12:42:24.513Z,18.79
2016-04-11T12:43:24.516Z,18.66
2016-04-11T12:44:24.519Z,18.71
2016-04-11T12:45:24.522Z,18.74
2016-04-11T12:46:24.367Z,18.74
2016-04-11T12:47:24.527Z,18.85
2016-04-11T12:48:24.529Z,18.74
2016-04-11T12:49:24.533Z,18.89
2016-04-11T12:50:24.551Z,18.78
2016-04-11T12:51:24.538Z,18.81
2016-04-11T12:52:24.541Z,18.7
2016-04-11T12:53:24.543Z,18.73
2016-04-11T12:54:24.546Z,18.7
2016-04-11T12:55:24.548Z,18.64
2016-04-11T12:56:24.551Z,18.7
2016-04-11T12:57:24.554Z,18.7
2016-04-11T12:58:24.571Z,18.68
2016-04-11T12:59:24.575Z,18.66
2016-04-11T13:00:24.562Z,18.82
2016-04-11T13:01:24.565Z,18.83
2016-04-11T13:02:24.567Z,18.81
2016-04-11T13:03:24.570Z,18.85
2016-04-11T13:04:24.416Z,18.85
2016-04-11T13:05:24.575Z,18.96
2016-04-11T13:06:24.593Z,18.89